Terminal Aerodrome Forecast
Issued by NWS Charleston, WV

Home | Current Version | Previous Version | Text Only | Print | Product List | Glossary On
Versions: 1 2 3 4 5 6 7 8 9 10 11 12 13 14 15 16 17 18 19 20 21 22 23
000
FTUS41 KRLX 010500 RRA
TAFBKW
TAF
KBKW 010553Z 0106/0206 00000KT P6SM SCT050
      TEMPO 0109/0112 4SM BR SCT001
     FM011400 VRB03KT P6SM BKN040
     FM011600 28005KT P6SM SCT050
     FM012300 VRB03KT P6SM SCT040=

USA.gov is the U.S. government's official web portal to all federal, state and local government web resources and services.